Athelstane, WI (54104)

12:58 PM CDT on July 25, 2016 (GMT -0500)
Athelstane Township | | Change Station

Elev 966 ft 45.40 °N, 88.12 °W | Updated 10 seconds ago

Partly Cloudy
Partly Cloudy
83.7 °F
Feels Like 84 °F
N
6.9
Wind Variable Wind from NW
Gusts 6.9 mph

Today
High -- | Low -- °F
--% Chance of Precip.
Yesterday
High -- | Low -- °F
Precip. -- in
Pressure 29.95 in
Visibility 10.0 miles
Clouds Few 4800 ft
Heat Index 84 °F
Dew Point 61 °F
Humidity 47%
Rainfall 0.00 in
Snow Depth Not available.
5:29 AM 8:28 PM
Waning Gibbous, 64% visible
METAR KIMT 251754Z AUTO 31012KT 10SM FEW048 27/13 A2997 RMK AO2 SLP142 T02720133 10272 20194 53008
Pressure 29.95 in
Visibility 10.0 miles
Clouds Few 4800 ft
Heat Index 84 °F
Dew Point 61 °F
Humidity 47%
Rainfall 0.00 in
Snow Depth Not available.
5:29 AM 8:28 PM
Waning Gibbous, 64% visible
METAR KIMT 251754Z AUTO 31012KT 10SM FEW048 27/13 A2997 RMK AO2 SLP142 T02720133 10272 20194 53008

10-Day Weather Forecast

Almanac

Astronomy

Jul. 25, 2016 Rise Set
Actual Time
Civil Twilight
Nautical Twilight
Astronomical Twilight
Moon
Length of Visible Light
Length of Day
Tomorrow will be .
, % of the Moon is Illuminated

Today's Extremes

State Highs State Lows

Community

WunderPhotos

Upload Photos

1,927,364 photos uploaded!

WunderBlog® & News

Nearby

Air Quality

  Air Quality AQ Index Pollutant
Not available.

Snow Depth

Station Depth Elevation

Earthquake Activity

City Distance Mag. Time & Date
Minimum magnitude displayed is 2.5.

Coastal Water Temperatures

Place Temperature

Stations

Nearby Weather Stations

Station Location Temp. Windchill Dew Point Humidity Wind Precip. Elev Updated Type
                   

Watches & Warnings

There are currently no watches in effect.